Time;durP1;ratioP1;P1;durP2;ratioP2;P2;SDS_P1;SDS_P2;PMS_P1;PMS_P2;Temp;Humidity;BMP_temperature;BMP_pressure;BME280_temperature;BME280_humidity;BME280_pressure;Samples;Min_cycle;Max_cycle;Signal;HPM_P1;HPM_P2
2022/01/30 00:00:17;;;;;;;3.60;2.00;;;7.60;99.90;;;;;;5037993;28;20478;-70
2022/01/30 00:03:02;;;;;;;3.20;1.90;;;7.60;99.90;;;;;;5028261;28;20437;-70
2022/01/30 00:05:49;;;;;;;2.87;2.20;;;7.60;99.90;;;;;;5032785;28;20414;-70
2022/01/30 00:08:35;;;;;;;3.33;2.47;;;7.60;99.90;;;;;;5035065;28;20419;-71
2022/01/30 00:11:25;;;;;;;4.00;2.73;;;7.60;99.90;;;;;;5028129;28;20560;-70
2022/01/30 00:14:12;;;;;;;3.90;3.40;;;7.60;99.90;;;;;;5036862;28;20396;-71
2022/01/30 00:17:03;;;;;;;4.43;3.87;;;7.60;99.90;;;;;;5028456;28;20423;-70
2022/01/30 00:19:58;;;;;;;5.17;3.50;;;7.60;99.90;;;;;;5031748;28;20522;-70
2022/01/30 00:22:50;;;;;;;4.87;4.37;;;7.60;99.90;;;;;;5029503;28;20428;-71
2022/01/30 00:25:45;;;;;;;5.10;4.32;;;7.50;99.90;;;;;;5024067;28;20945;-70
2022/01/30 00:28:32;;;;;;;4.63;4.13;;;7.60;99.90;;;;;;5030509;28;20198;-71
2022/01/30 00:31:20;;;;;;;5.43;4.70;;;7.60;99.90;;;;;;5033170;28;20452;-70
2022/01/30 00:34:06;;;;;;;6.70;5.20;;;7.60;99.90;;;;;;5039908;28;20436;-71
2022/01/30 00:36:51;;;;;;;5.50;4.70;;;7.50;99.90;;;;;;5030624;28;20447;-71
2022/01/30 00:39:38;;;;;;;8.90;5.10;;;7.60;99.90;;;;;;5028373;28;20584;-71
2022/01/30 00:42:24;;;;;;;6.30;5.50;;;7.50;99.90;;;;;;5029643;28;20996;-70
2022/01/30 00:45:10;;;;;;;6.57;5.40;;;7.60;99.90;;;;;;5030633;28;21247;-70
2022/01/30 00:47:56;;;;;;;5.72;5.10;;;7.60;99.90;;;;;;5036764;28;20553;-71
2022/01/30 00:50:42;;;;;;;7.80;6.20;;;7.50;99.90;;;;;;5035730;28;20217;-70
2022/01/30 00:53:27;;;;;;;8.87;5.67;;;7.50;99.90;;;;;;5034958;28;20455;-70
2022/01/30 00:56:14;;;;;;;6.70;5.53;;;7.60;99.90;;;;;;5024908;28;20493;-71
2022/01/30 00:59:00;;;;;;;6.10;5.50;;;7.60;99.90;;;;;;5039292;28;20442;-71
2022/01/30 01:01:45;;;;;;;7.50;5.03;;;7.60;99.90;;;;;;5031766;28;20981;-71
2022/01/30 01:04:31;;;;;;;5.90;5.00;;;7.70;99.90;;;;;;5031261;28;20889;-71
2022/01/30 01:07:20;;;;;;;6.30;5.20;;;7.70;99.90;;;;;;5022929;28;20436;-70
2022/01/30 01:10:11;;;;;;;7.03;5.20;;;7.70;99.90;;;;;;5038999;28;20438;-71
2022/01/30 01:13:15;;;;;;;6.17;4.87;;;7.70;99.90;;;;;;5028324;28;20440;-71
2022/01/30 01:25:11;;;;;;;11.57;5.83;;;7.80;99.90;;;;;;5026501;28;20457;-71
2022/01/30 01:27:58;;;;;;;7.30;5.23;;;7.80;99.90;;;;;;5023149;28;20411;-71
2022/01/30 01:30:45;;;;;;;6.47;5.77;;;7.80;99.90;;;;;;5029218;28;20448;-71
2022/01/30 01:33:39;;;;;;;10.90;5.80;;;7.70;99.90;;;;;;5032358;28;20432;-71
2022/01/30 01:36:25;;;;;;;6.90;5.70;;;7.80;99.90;;;;;;5031009;28;20448;-70
2022/01/30 01:39:10;;;;;;;10.73;8.70;;;7.80;99.90;;;;;;5029426;28;20439;-71
2022/01/30 01:41:57;;;;;;;10.27;8.30;;;7.80;99.90;;;;;;5037797;28;20479;-71
2022/01/30 01:44:48;;;;;;;10.77;9.30;;;7.80;99.90;;;;;;5027841;28;20811;-71
2022/01/30 01:47:34;;;;;;;10.37;8.67;;;7.70;99.90;;;;;;5026616;28;20512;-70
2022/01/30 01:50:38;;;;;;;13.50;8.40;;;7.70;99.90;;;;;;5038722;28;20459;-71
2022/01/30 01:53:25;;;;;;;11.70;8.40;;;7.70;99.90;;;;;;5030238;28;20540;-71
2022/01/30 01:56:14;;;;;;;9.63;8.57;;;7.70;99.90;;;;;;5033636;28;20417;-70
2022/01/30 01:58:59;;;;;;;8.77;7.43;;;7.70;99.90;;;;;;5042009;28;20437;-70
2022/01/30 02:01:50;;;;;;;8.17;6.57;;;7.70;99.90;;;;;;5032340;28;20518;-70
2022/01/30 02:04:37;;;;;;;9.60;7.13;;;7.70;99.90;;;;;;5016364;28;20836;-70
2022/01/30 02:10:29;;;;;;;10.20;7.23;;;7.70;99.90;;;;;;5012856;28;20452;-71
2022/01/30 02:13:43;;;;;;;11.17;8.00;;;7.70;99.90;;;;;;5027185;28;20494;-69
2022/01/30 02:25:49;;;;;;;8.63;7.47;;;7.70;99.90;;;;;;5027577;28;20405;-71
2022/01/30 02:28:35;;;;;;;8.63;6.00;;;7.70;99.90;;;;;;5027739;28;20491;-71
2022/01/30 02:31:22;;;;;;;7.90;6.43;;;7.70;99.90;;;;;;5040441;28;20559;-71
2022/01/30 02:34:08;;;;;;;7.93;5.63;;;7.70;99.90;;;;;;5034779;28;20571;-71
2022/01/30 02:36:55;;;;;;;14.50;6.67;;;7.70;99.90;;;;;;5027842;28;20440;-71
2022/01/30 02:39:42;;;;;;;8.40;5.23;;;7.70;99.90;;;;;;5038798;28;20580;-71
2022/01/30 02:42:32;;;;;;;7.97;6.07;;;7.70;99.90;;;;;;5032575;28;21092;-71
2022/01/30 02:45:19;;;;;;;9.30;5.17;;;7.70;99.90;;;;;;5041656;28;20808;-71
2022/01/30 02:48:16;;;;;;;8.60;5.07;;;7.70;99.90;;;;;;5027700;28;20405;-71
2022/01/30 02:51:11;;;;;;;13.03;5.00;;;7.70;99.90;;;;;;5032790;28;20448;-71
2022/01/30 02:54:03;;;;;;;7.03;4.80;;;7.70;99.90;;;;;;5039465;28;20444;-71
2022/01/30 02:56:50;;;;;;;9.77;5.67;;;7.70;99.90;;;;;;5024959;28;20448;-71
2022/01/30 02:59:37;;;;;;;8.37;4.33;;;7.70;99.90;;;;;;5038093;28;20800;-71
2022/01/30 03:02:23;;;;;;;6.77;4.27;;;7.70;99.90;;;;;;5032554;28;20437;-71
2022/01/30 03:05:09;;;;;;;15.73;4.77;;;7.70;99.90;;;;;;5036071;28;20436;-72
2022/01/30 03:07:54;;;;;;;7.70;5.73;;;7.70;99.90;;;;;;5032145;28;20444;-72
2022/01/30 03:10:40;;;;;;;18.00;5.00;;;7.70;99.90;;;;;;5033107;28;20501;-72
2022/01/30 03:13:26;;;;;;;17.77;4.30;;;7.70;99.90;;;;;;5025572;28;20511;-71
2022/01/30 03:16:12;;;;;;;12.47;5.73;;;7.70;99.90;;;;;;5032202;28;21088;-71
2022/01/30 03:18:58;;;;;;;21.80;5.20;;;7.70;99.90;;;;;;5039207;28;20425;-72
2022/01/30 03:21:44;;;;;;;13.83;5.03;;;7.70;99.90;;;;;;5035411;28;20462;-71
2022/01/30 03:24:34;;;;;;;13.47;4.83;;;7.70;99.90;;;;;;5032798;28;20429;-71
2022/01/30 03:27:20;;;;;;;21.67;4.47;;;7.70;99.90;;;;;;5033390;28;20427;-71
2022/01/30 03:30:13;;;;;;;11.10;4.10;;;7.70;99.90;;;;;;5024989;28;20877;-71
2022/01/30 03:33:00;;;;;;;15.00;3.90;;;7.80;99.90;;;;;;5037163;28;21095;-71
2022/01/30 03:35:45;;;;;;;13.20;4.70;;;7.70;99.90;;;;;;5035685;28;20458;-71
2022/01/30 03:38:31;;;;;;;25.33;5.20;;;7.70;99.90;;;;;;5030059;28;20511;-72
2022/01/30 03:41:16;;;;;;;13.53;4.00;;;7.70;99.90;;;;;;5035941;28;20471;-72
2022/01/30 03:44:02;;;;;;;19.00;4.70;;;7.70;99.90;;;;;;5030433;28;20411;-72
2022/01/30 03:46:49;;;;;;;16.17;4.10;;;7.70;99.90;;;;;;5032620;28;20585;-71
2022/01/30 03:49:35;;;;;;;19.20;5.37;;;7.70;99.90;;;;;;5029907;28;20423;-71
2022/01/30 03:52:21;;;;;;;17.37;4.70;;;7.70;99.90;;;;;;5030227;28;20583;-71
2022/01/30 03:55:07;;;;;;;8.00;3.63;;;7.60;99.90;;;;;;5033098;28;20587;-71
2022/01/30 03:57:53;;;;;;;21.63;5.27;;;7.60;99.90;;;;;;5047481;28;20743;-71
2022/01/30 04:00:40;;;;;;;12.00;3.30;;;7.60;99.90;;;;;;5015540;28;21025;-71
2022/01/30 04:03:27;;;;;;;16.23;4.40;;;7.60;99.90;;;;;;5049746;22;20486;-75
2022/01/30 04:06:13;;;;;;;14.90;5.03;;;7.60;99.90;;;;;;5064302;28;20442;-74
2022/01/30 04:08:59;;;;;;;21.43;4.60;;;7.60;99.90;;;;;;5074914;28;20418;-74
2022/01/30 04:11:45;;;;;;;17.27;3.83;;;7.60;99.90;;;;;;5065980;28;20419;-74
2022/01/30 04:14:31;;;;;;;16.93;3.90;;;7.60;99.90;;;;;;5082388;28;20462;-74
2022/01/30 04:17:19;;;;;;;20.53;4.30;;;7.60;99.90;;;;;;5078327;28;20821;-74
2022/01/30 04:20:07;;;;;;;12.60;3.30;;;7.60;99.90;;;;;;5086214;28;20468;-73
2022/01/30 04:22:53;;;;;;;25.47;4.20;;;7.60;99.90;;;;;;5091028;28;20433;-74
2022/01/30 04:25:38;;;;;;;9.87;2.83;;;7.60;99.90;;;;;;5082249;28;20445;-75
2022/01/30 04:28:25;;;;;;;8.53;3.40;;;7.60;99.90;;;;;;5090746;28;20941;-75
2022/01/30 04:31:12;;;;;;;22.47;4.57;;;7.60;99.90;;;;;;5092195;28;20515;-75
2022/01/30 04:33:59;;;;;;;21.63;2.77;;;7.60;99.90;;;;;;5091313;28;20424;-74
2022/01/30 04:37:00;;;;;;;15.87;3.10;;;7.60;99.90;;;;;;5081952;28;20951;-75
2022/01/30 04:58:17;;;;;;;10.60;3.00;;;7.40;99.90;;;;;;5068748;28;20420;-74
2022/01/30 05:01:11;;;;;;;17.03;2.63;;;7.40;99.90;;;;;;5066436;28;20524;-74
2022/01/30 05:04:03;;;;;;;10.80;3.13;;;7.40;99.90;;;;;;5067324;28;20594;-74
2022/01/30 05:07:27;;;;;;;13.57;3.10;;;7.40;99.90;;;;;;5066591;28;20480;-74
2022/01/30 05:10:01;;;;;;;10.80;2.50;;;7.30;99.90;;;;;;5067091;28;20459;-74
2022/01/30 05:12:51;;;;;;;9.57;2.93;;;7.20;99.90;;;;;;5056350;28;20948;-74
2022/01/30 05:15:39;;;;;;;19.50;4.33;;;7.20;99.90;;;;;;5067446;28;20442;-74
2022/01/30 05:18:26;;;;;;;13.20;2.93;;;7.10;99.90;;;;;;5060056;28;20430;-74
2022/01/30 05:21:12;;;;;;;18.23;3.70;;;7.00;99.90;;;;;;5073221;28;20965;-74
2022/01/30 05:23:58;;;;;;;12.20;2.80;;;7.00;99.90;;;;;;5063812;28;20504;-75
2022/01/30 05:26:46;;;;;;;26.00;3.30;;;6.90;99.90;;;;;;5066269;28;20562;-74
2022/01/30 05:29:32;;;;;;;14.10;3.33;;;6.90;99.90;;;;;;5063028;28;20620;-75
2022/01/30 05:32:20;;;;;;;17.10;3.50;;;6.90;99.90;;;;;;5066837;28;20450;-74
2022/01/30 05:35:07;;;;;;;10.37;3.10;;;6.90;99.90;;;;;;5066759;28;20502;-74
2022/01/30 05:37:55;;;;;;;20.67;2.53;;;6.90;99.90;;;;;;5064641;28;20451;-74
2022/01/30 05:40:41;;;;;;;15.38;3.72;;;6.90;99.90;;;;;;5060197;28;20942;-74
2022/01/30 05:43:30;;;;;;;26.00;3.67;;;6.90;99.90;;;;;;5063638;28;20271;-73
2022/01/30 05:46:29;;;;;;;10.98;3.97;;;6.80;99.90;;;;;;5069978;28;20576;-74
2022/01/30 05:49:16;;;;;;;27.73;3.65;;;6.70;99.90;;;;;;5058952;28;20674;-74
2022/01/30 05:52:02;;;;;;;24.67;3.50;;;6.70;99.90;;;;;;5064506;28;20201;-73
2022/01/30 05:54:48;;;;;;;14.20;3.40;;;6.70;99.90;;;;;;5051181;28;20496;-74
2022/01/30 05:57:33;;;;;;;17.00;3.60;;;6.70;99.90;;;;;;5042575;28;20477;-74
2022/01/30 06:00:19;;;;;;;12.93;3.37;;;6.70;99.90;;;;;;5054121;28;20427;-74
2022/01/30 06:03:05;;;;;;;11.10;2.60;;;6.70;99.90;;;;;;5041708;28;20642;-74
2022/01/30 06:05:52;;;;;;;10.17;3.97;;;6.70;99.90;;;;;;5054715;28;20440;-74
2022/01/30 06:08:43;;;;;;;14.17;2.73;;;6.70;99.90;;;;;;5039863;28;20439;-74
2022/01/30 06:11:29;;;;;;;12.57;3.43;;;6.60;99.90;;;;;;5050807;28;20492;-74
2022/01/30 06:14:15;;;;;;;17.07;2.40;;;6.60;99.90;;;;;;5050288;28;20471;-74
2022/01/30 06:17:00;;;;;;;15.07;3.00;;;6.50;99.90;;;;;;5054094;28;20766;-74
2022/01/30 06:19:45;;;;;;;11.60;3.43;;;6.60;99.90;;;;;;5047679;28;20422;-75
2022/01/30 06:22:33;;;;;;;26.17;2.93;;;6.60;99.90;;;;;;5048257;28;20447;-75
2022/01/30 06:25:18;;;;;;;25.50;3.30;;;6.60;99.90;;;;;;5048628;28;20804;-75
2022/01/30 06:28:04;;;;;;;13.27;2.83;;;6.70;99.90;;;;;;5057606;28;20398;-75
2022/01/30 06:30:50;;;;;;;15.93;3.53;;;6.60;99.90;;;;;;5053583;28;20511;-75
2022/01/30 06:33:36;;;;;;;17.30;2.90;;;6.60;99.90;;;;;;5045375;28;20475;-74
2022/01/30 06:36:21;;;;;;;19.80;2.87;;;6.60;99.90;;;;;;5043305;28;20809;-74
2022/01/30 06:39:08;;;;;;;12.50;3.30;;;6.60;99.90;;;;;;5059448;28;20416;-74
2022/01/30 06:41:54;;;;;;;15.10;3.70;;;6.50;99.90;;;;;;5050746;28;21046;-74
2022/01/30 06:44:40;;;;;;;15.37;2.67;;;6.50;99.90;;;;;;5053071;28;20446;-74
2022/01/30 06:47:26;;;;;;;13.03;4.40;;;6.50;99.90;;;;;;5060874;28;20424;-74
2022/01/30 06:50:12;;;;;;;30.17;4.57;;;6.40;99.90;;;;;;5056535;28;20427;-74
2022/01/30 06:52:58;;;;;;;21.70;4.00;;;6.30;99.90;;;;;;5044213;28;21004;-74
2022/01/30 06:55:45;;;;;;;11.67;3.13;;;6.30;99.90;;;;;;5044815;28;20435;-74
2022/01/30 06:58:31;;;;;;;12.23;2.40;;;6.30;99.90;;;;;;5041366;28;20603;-74
2022/01/30 07:01:16;;;;;;;22.50;3.83;;;6.20;99.90;;;;;;5045423;28;20472;-74
2022/01/30 07:04:02;;;;;;;24.10;3.20;;;6.20;99.90;;;;;;5051906;28;21056;-74
2022/01/30 07:06:47;;;;;;;13.20;3.03;;;6.20;99.90;;;;;;5042677;28;20445;-74
2022/01/30 07:09:33;;;;;;;21.90;4.27;;;6.20;99.90;;;;;;5049683;28;20872;-74
2022/01/30 07:12:20;;;;;;;9.43;3.27;;;6.20;99.90;;;;;;5045549;28;20968;-74
2022/01/30 07:15:07;;;;;;;19.10;2.83;;;6.10;99.90;;;;;;5048017;28;20550;-74
2022/01/30 07:17:52;;;;;;;12.80;3.17;;;6.10;99.90;;;;;;5052852;28;20440;-74
2022/01/30 07:20:38;;;;;;;18.50;2.90;;;6.10;99.90;;;;;;5050492;28;20517;-74
2022/01/30 07:23:23;;;;;;;11.80;2.93;;;6.20;99.90;;;;;;5044931;28;20487;-74
2022/01/30 07:26:10;;;;;;;20.80;3.30;;;6.10;99.90;;;;;;5053751;28;20431;-74
2022/01/30 07:28:57;;;;;;;12.10;2.80;;;6.20;99.90;;;;;;5050916;28;20538;-75
2022/01/30 07:31:43;;;;;;;14.50;2.80;;;6.10;99.90;;;;;;5043533;28;20827;-75
2022/01/30 07:34:29;;;;;;;25.53;3.67;;;6.10;99.90;;;;;;5055862;28;20539;-74
2022/01/30 07:37:16;;;;;;;11.87;3.07;;;6.10;99.90;;;;;;5045233;28;20455;-74
2022/01/30 07:40:02;;;;;;;15.87;3.07;;;6.10;99.90;;;;;;5059778;28;20477;-73
2022/01/30 07:42:48;;;;;;;14.80;4.10;;;6.10;99.90;;;;;;5048074;28;20471;-74
2022/01/30 07:45:35;;;;;;;18.50;4.40;;;6.10;99.90;;;;;;5046816;28;20808;-74
2022/01/30 07:48:21;;;;;;;21.50;5.07;;;6.20;99.90;;;;;;5054425;28;20442;-74
2022/01/30 07:51:06;;;;;;;23.23;7.67;;;6.20;99.90;;;;;;5044138;28;20924;-75
2022/01/30 07:53:52;;;;;;;16.40;6.53;;;6.30;99.90;;;;;;5043947;28;20456;-74
2022/01/30 07:56:37;;;;;;;37.10;7.63;;;6.30;99.90;;;;;;5048292;28;20415;-74
2022/01/30 07:59:23;;;;;;;16.03;6.70;;;6.40;99.90;;;;;;5057092;28;20435;-74
2022/01/30 08:02:10;;;;;;;24.13;5.70;;;6.40;99.90;;;;;;5045805;28;20535;-75
2022/01/30 08:04:56;;;;;;;25.67;5.07;;;6.40;99.90;;;;;;5049605;28;20446;-74
2022/01/30 08:07:42;;;;;;;21.33;5.23;;;6.50;99.90;;;;;;5048676;28;20455;-74
2022/01/30 08:10:27;;;;;;;14.47;3.87;;;6.50;99.90;;;;;;5056045;28;20435;-75
2022/01/30 08:13:14;;;;;;;15.93;4.17;;;6.60;99.90;;;;;;5051641;28;20439;-74
2022/01/30 08:15:59;;;;;;;14.97;3.33;;;6.60;99.90;;;;;;5050250;28;20482;-74
2022/01/30 08:18:46;;;;;;;17.13;4.57;;;6.50;99.90;;;;;;5037619;28;20523;-73
2022/01/30 08:21:32;;;;;;;15.73;3.70;;;6.50;99.90;;;;;;5044823;28;20466;-74
2022/01/30 08:24:19;;;;;;;17.53;2.93;;;6.40;99.90;;;;;;5049387;28;20459;-74
2022/01/30 08:27:05;;;;;;;14.35;4.05;;;6.40;99.90;;;;;;5061134;28;20794;-74
2022/01/30 08:29:51;;;;;;;18.73;4.00;;;6.40;99.90;;;;;;5046149;28;20231;-73
2022/01/30 08:32:41;;;;;;;21.37;4.23;;;6.40;99.90;;;;;;5050691;28;20427;-74
2022/01/30 08:35:28;;;;;;;18.70;3.57;;;6.30;99.90;;;;;;5045181;28;20448;-73
2022/01/30 08:38:16;;;;;;;21.40;3.60;;;6.30;99.90;;;;;;5052328;28;20419;-75
2022/01/30 08:41:01;;;;;;;13.97;3.97;;;6.30;99.90;;;;;;5039836;28;20459;-75
2022/01/30 08:43:47;;;;;;;16.23;3.47;;;6.30;99.90;;;;;;5054794;28;20479;-74
2022/01/30 08:46:33;;;;;;;16.63;3.47;;;6.40;99.90;;;;;;5050354;28;20935;-74
2022/01/30 08:49:19;;;;;;;21.50;3.27;;;6.40;99.90;;;;;;5047937;28;20584;-74
2022/01/30 08:52:07;;;;;;;17.17;4.20;;;6.40;99.90;;;;;;5045543;28;20443;-74
2022/01/30 08:54:53;;;;;;;11.37;3.43;;;6.40;99.90;;;;;;5048426;28;20458;-75
2022/01/30 08:57:39;;;;;;;16.53;3.67;;;6.40;99.90;;;;;;5049843;28;20427;-74
2022/01/30 09:00:25;;;;;;;17.77;3.67;;;6.50;99.90;;;;;;5046239;28;20439;-74
2022/01/30 09:03:11;;;;;;;19.23;3.70;;;6.50;99.90;;;;;;5052194;28;20624;-74
2022/01/30 09:05:57;;;;;;;17.90;3.80;;;6.50;99.90;;;;;;5045099;28;20568;-75
2022/01/30 09:08:44;;;;;;;19.27;4.20;;;6.50;99.90;;;;;;5054974;28;20907;-74
2022/01/30 09:11:30;;;;;;;12.33;3.00;;;6.60;99.90;;;;;;5048199;28;20446;-73
2022/01/30 09:14:15;;;;;;;12.93;3.67;;;6.60;99.90;;;;;;5052907;28;20459;-74
2022/01/30 09:17:01;;;;;;;18.40;3.47;;;6.80;99.90;;;;;;5051310;28;20448;-74
2022/01/30 09:19:47;;;;;;;10.83;3.67;;;6.90;99.90;;;;;;5050633;28;20539;-74
2022/01/30 09:22:33;;;;;;;11.60;3.10;;;6.90;99.90;;;;;;5049033;28;20437;-74
2022/01/30 09:25:20;;;;;;;11.03;3.20;;;7.00;99.90;;;;;;5050149;28;20986;-74
2022/01/30 09:28:06;;;;;;;16.40;3.07;;;7.00;99.90;;;;;;5050967;28;20418;-73
2022/01/30 09:30:52;;;;;;;11.07;3.30;;;7.00;99.90;;;;;;5051390;28;20451;-75
2022/01/30 09:33:37;;;;;;;21.93;3.30;;;7.10;99.90;;;;;;5053979;28;20540;-75
2022/01/30 09:36:23;;;;;;;8.57;2.70;;;7.20;99.90;;;;;;5047592;28;20964;-73
2022/01/30 09:39:09;;;;;;;15.20;3.10;;;7.30;99.90;;;;;;5049198;28;20422;-74
2022/01/30 09:41:57;;;;;;;14.10;2.43;;;7.40;99.90;;;;;;5059048;28;20418;-75
2022/01/30 09:44:42;;;;;;;13.20;2.47;;;7.40;99.90;;;;;;5047672;28;20534;-74
2022/01/30 09:47:28;;;;;;;11.47;3.13;;;7.40;99.90;;;;;;5059596;28;20936;-75
2022/01/30 09:50:17;;;;;;;15.17;3.13;;;7.40;99.90;;;;;;5048567;28;20541;-74
2022/01/30 09:53:02;;;;;;;9.90;3.10;;;7.40;99.90;;;;;;5051393;28;20433;-74
2022/01/30 09:55:48;;;;;;;25.13;3.30;;;7.50;99.90;;;;;;5053750;28;20795;-75
2022/01/30 09:58:35;;;;;;;17.40;3.40;;;7.60;99.90;;;;;;5046769;28;20460;-75
2022/01/30 10:01:21;;;;;;;14.47;3.27;;;7.60;99.90;;;;;;5045142;28;20539;-74
2022/01/30 10:04:07;;;;;;;20.43;3.23;;;7.60;99.90;;;;;;5047745;28;20549;-75
2022/01/30 10:06:56;;;;;;;12.20;3.33;;;7.50;99.90;;;;;;5058932;22;20568;-76
2022/01/30 10:09:47;;;;;;;10.57;2.67;;;7.50;99.90;;;;;;5042995;28;20793;-77
2022/01/30 10:12:34;;;;;;;12.90;3.50;;;7.50;99.90;;;;;;5035548;28;20786;-77
2022/01/30 10:15:21;;;;;;;13.05;2.55;;;7.40;99.90;;;;;;5039301;28;20208;-78
2022/01/30 10:18:07;;;;;;;9.40;2.43;;;7.40;99.90;;;;;;5042037;28;20575;-76
2022/01/30 10:20:52;;;;;;;18.97;2.73;;;7.30;99.90;;;;;;5027241;28;20444;-77
2022/01/30 10:23:38;;;;;;;11.60;2.60;;;7.30;99.90;;;;;;5041714;28;20567;-77
2022/01/30 10:26:32;;;;;;;14.53;3.43;;;7.30;99.90;;;;;;5036583;28;20483;-77
2022/01/30 10:29:19;;;;;;;10.40;3.13;;;7.20;99.90;;;;;;5042339;28;20445;-78
2022/01/30 10:32:08;;;;;;;12.17;3.00;;;7.30;99.90;;;;;;5034892;28;20428;-77
2022/01/30 10:34:59;;;;;;;10.17;2.40;;;7.30;99.90;;;;;;5039727;28;20506;-76
2022/01/30 10:37:46;;;;;;;13.83;3.10;;;7.30;99.90;;;;;;5033512;28;20452;-78
2022/01/30 10:40:37;;;;;;;13.52;3.13;;;7.30;99.90;;;;;;5023659;28;20933;-76
2022/01/30 10:43:22;;;;;;;11.98;3.10;;;7.40;99.90;;;;;;5036251;28;20224;-76
2022/01/30 10:46:18;;;;;;;10.97;2.20;;;7.50;99.90;;;;;;5040081;28;20260;-77
2022/01/30 10:49:12;;;;;;;15.60;3.60;;;7.50;99.90;;;;;;5037886;28;20444;-75
2022/01/30 10:51:59;;;;;;;12.70;2.80;;;7.50;99.90;;;;;;5031461;28;20572;-75
2022/01/30 10:54:50;;;;;;;13.73;3.10;;;7.50;99.90;;;;;;5029064;28;20432;-75
2022/01/30 10:57:41;;;;;;;10.13;2.70;;;7.50;99.90;;;;;;5037612;28;20985;-75
2022/01/30 11:00:40;;;;;;;10.63;2.47;;;7.50;99.90;;;;;;5033509;28;20444;-76
2022/01/30 11:03:41;;;;;;;14.63;3.90;;;7.60;99.90;;;;;;5039732;28;20556;-76
2022/01/30 11:06:28;;;;;;;8.50;2.75;;;7.60;99.90;;;;;;5042618;28;20421;-75
2022/01/30 11:09:20;;;;;;;8.33;2.27;;;7.60;99.90;;;;;;5032124;28;20213;-76
2022/01/30 11:12:10;;;;;;;13.97;2.87;;;7.70;99.90;;;;;;5033088;28;20519;-77
2022/01/30 11:15:15;;;;;;;18.53;2.83;;;7.60;99.90;;;;;;5034113;28;20514;-77
2022/01/30 11:18:03;;;;;;;5.50;2.07;;;7.70;99.90;;;;;;5035897;28;20475;-77
2022/01/30 11:20:49;;;;;;;13.53;3.37;;;7.70;99.90;;;;;;5029756;28;20448;-77
2022/01/30 11:23:39;;;;;;;15.87;2.97;;;7.60;99.90;;;;;;5037217;28;20809;-76
2022/01/30 11:26:25;;;;;;;9.47;2.60;;;7.70;99.90;;;;;;5031905;28;20433;-77
2022/01/30 11:29:12;;;;;;;12.33;2.70;;;7.70;99.90;;;;;;5028416;28;20457;-75
2022/01/30 11:31:58;;;;;;;10.80;2.53;;;7.70;99.90;;;;;;5035109;28;20443;-78
2022/01/30 11:34:45;;;;;;;8.40;2.83;;;7.70;99.90;;;;;;5034365;28;20491;-75
2022/01/30 11:37:33;;;;;;;10.90;3.07;;;7.70;99.90;;;;;;5028327;28;20431;-76
2022/01/30 11:40:21;;;;;;;9.50;2.60;;;7.70;99.90;;;;;;5028895;28;20453;-75
2022/01/30 11:43:09;;;;;;;10.00;2.10;;;7.70;99.90;;;;;;5039160;28;20484;-75
2022/01/30 11:46:12;;;;;;;7.90;1.93;;;7.70;99.90;;;;;;5033700;28;20511;-75
2022/01/30 11:49:11;;;;;;;13.27;2.30;;;7.70;99.90;;;;;;5018668;28;20418;-72
2022/01/30 11:51:57;;;;;;;12.10;2.77;;;7.70;99.90;;;;;;5035127;28;20428;-77
2022/01/30 11:54:44;;;;;;;10.80;2.33;;;7.70;99.90;;;;;;5027667;28;20428;-77
2022/01/30 11:57:47;;;;;;;16.83;2.50;;;7.70;99.90;;;;;;5033246;28;20456;-77
2022/01/30 12:00:38;;;;;;;11.90;2.90;;;7.70;99.90;;;;;;5033630;28;21067;-76
2022/01/30 12:03:26;;;;;;;11.37;2.67;;;7.70;99.90;;;;;;5035685;28;20533;-75
2022/01/30 12:06:33;;;;;;;11.90;2.00;;;7.70;99.90;;;;;;5034772;28;20415;-75
2022/01/30 12:09:29;;;;;;;9.80;2.43;;;7.80;99.90;;;;;;5029145;28;20464;-77
2022/01/30 12:12:15;;;;;;;17.70;2.80;;;7.90;99.90;;;;;;5044451;28;20424;-76
2022/01/30 12:15:03;;;;;;;7.03;2.37;;;7.90;99.90;;;;;;5037200;28;20421;-77
2022/01/30 12:17:51;;;;;;;15.27;2.20;;;7.90;99.90;;;;;;5025199;28;20538;-77
2022/01/30 12:21:11;;;;;;;11.23;2.60;;;8.00;99.90;;;;;;5026035;28;20429;-77
2022/01/30 12:23:57;;;;;;;10.27;2.97;;;7.90;99.90;;;;;;5032625;28;20502;-76
2022/01/30 12:26:51;;;;;;;12.60;2.40;;;8.00;99.90;;;;;;5039227;28;20952;-77
2022/01/30 12:29:38;;;;;;;12.00;3.53;;;8.10;99.90;;;;;;5029169;28;20487;-77
2022/01/30 12:32:35;;;;;;;9.30;2.60;;;8.00;99.90;;;;;;5038800;28;20456;-77
2022/01/30 12:35:21;;;;;;;13.10;2.10;;;7.90;99.90;;;;;;5032791;28;20908;-77
2022/01/30 12:38:07;;;;;;;11.47;2.80;;;7.90;99.90;;;;;;5027800;28;20462;-76
2022/01/30 12:40:52;;;;;;;9.50;3.30;;;7.90;98.40;;;;;;5035044;28;20984;-77
2022/01/30 12:43:38;;;;;;;13.53;2.20;;;7.90;97.80;;;;;;5027341;28;20495;-76
2022/01/30 12:46:26;;;;;;;10.37;2.10;;;7.80;94.60;;;;;;5032225;28;20416;-76
2022/01/30 12:49:15;;;;;;;12.17;2.23;;;7.80;94.90;;;;;;5028751;28;20472;-76
2022/01/30 12:52:04;;;;;;;15.87;2.70;;;7.80;94.90;;;;;;5033242;28;20433;-76
2022/01/30 12:54:50;;;;;;;12.53;4.57;;;7.70;94.00;;;;;;5025988;28;20426;-77
2022/01/30 12:57:37;;;;;;;12.03;2.90;;;7.60;94.60;;;;;;5032399;28;20468;-75
2022/01/30 13:00:23;;;;;;;8.17;2.80;;;7.60;94.90;;;;;;5033504;28;20440;-76
2022/01/30 13:03:13;;;;;;;9.40;3.03;;;7.60;94.30;;;;;;5036189;28;20558;-77
2022/01/30 13:06:01;;;;;;;8.87;2.43;;;7.60;94.30;;;;;;5034489;28;20424;-76
2022/01/30 13:08:49;;;;;;;11.67;2.77;;;7.50;94.50;;;;;;5024668;28;20479;-77
2022/01/30 13:11:35;;;;;;;15.30;2.93;;;7.60;94.80;;;;;;5037378;28;20425;-76
2022/01/30 13:14:21;;;;;;;9.57;3.07;;;7.60;95.20;;;;;;5046433;28;20424;-76
2022/01/30 13:17:08;;;;;;;16.00;3.40;;;7.70;93.00;;;;;;5029899;28;20830;-77
2022/01/30 13:19:54;;;;;;;10.80;2.80;;;7.80;93.50;;;;;;5044090;28;20427;-77
2022/01/30 13:22:43;;;;;;;8.80;2.67;;;8.20;89.00;;;;;;5030079;28;20486;-77
2022/01/30 13:25:29;;;;;;;15.50;3.70;;;8.80;89.10;;;;;;5039668;28;20399;-77
2022/01/30 13:28:21;;;;;;;6.83;2.03;;;9.40;73.50;;;;;;5033142;28;20560;-77
2022/01/30 13:31:13;;;;;;;26.33;3.50;;;9.90;68.10;;;;;;5035502;28;20817;-76
2022/01/30 13:34:24;;;;;;;14.97;2.57;;;9.90;64.20;;;;;;5043254;28;20791;-77
2022/01/30 13:37:11;;;;;;;15.43;3.87;;;9.60;63.90;;;;;;5028525;28;20479;-77
2022/01/30 13:40:17;;;;;;;17.07;2.77;;;9.30;65.10;;;;;;5045369;28;20521;-77
2022/01/30 13:43:11;;;;;;;9.57;2.97;;;9.10;68.40;;;;;;5049714;28;20427;-76
2022/01/30 13:49:04;;;;;;;9.00;2.53;;;8.70;70.50;;;;;;5039696;28;20418;-77
2022/01/30 13:52:08;;;;;;;17.37;2.70;;;8.60;69.60;;;;;;5045135;28;20451;-77
2022/01/30 13:55:05;;;;;;;14.53;2.97;;;8.50;71.20;;;;;;5039495;28;20431;-76
2022/01/30 13:57:57;;;;;;;16.63;2.77;;;8.40;70.80;;;;;;5039728;28;20468;-77
2022/01/30 14:00:43;;;;;;;18.73;3.57;;;8.10;70.40;;;;;;5038854;28;20445;-77
2022/01/30 14:03:30;;;;;;;10.43;2.87;;;8.10;71.80;;;;;;5033844;28;20805;-77
2022/01/30 14:06:17;;;;;;;10.90;2.50;;;8.00;71.70;;;;;;5039284;28;20523;-76
2022/01/30 14:09:11;;;;;;;13.33;2.80;;;8.10;73.30;;;;;;5044325;28;20492;-75
2022/01/30 14:12:05;;;;;;;13.60;2.90;;;8.00;71.80;;;;;;5045570;28;20509;-77
2022/01/30 14:15:02;;;;;;;13.27;2.83;;;7.90;71.90;;;;;;5032684;28;20506;-76
2022/01/30 14:18:12;;;;;;;15.60;3.83;;;8.00;73.20;;;;;;5032963;28;20446;-77
2022/01/30 14:20:59;;;;;;;10.23;2.47;;;8.00;73.20;;;;;;5033878;28;20519;-76
2022/01/30 14:23:45;;;;;;;14.70;3.10;;;8.00;72.40;;;;;;5034682;28;20468;-77
2022/01/30 14:26:32;;;;;;;15.17;2.90;;;8.00;74.40;;;;;;5037146;28;20447;-77
2022/01/30 14:29:21;;;;;;;7.47;1.80;;;8.10;71.80;;;;;;5039771;28;20579;-77
2022/01/30 14:32:10;;;;;;;12.93;3.03;;;8.10;73.60;;;;;;5034345;28;21085;-75
2022/01/30 14:34:56;;;;;;;20.03;2.93;;;8.10;73.50;;;;;;5026524;28;20514;-77
2022/01/30 14:37:44;;;;;;;15.57;2.93;;;8.20;71.30;;;;;;5027331;28;20464;-76
2022/01/30 14:40:31;;;;;;;14.30;3.20;;;8.10;71.20;;;;;;5044214;28;20433;-76
2022/01/30 14:43:17;;;;;;;11.63;2.90;;;8.10;73.10;;;;;;5045084;28;20470;-76
2022/01/30 14:46:04;;;;;;;25.73;3.53;;;8.10;72.30;;;;;;5029555;28;20415;-77
2022/01/30 14:48:50;;;;;;;14.57;2.93;;;8.00;75.10;;;;;;5025201;28;21100;-76
2022/01/30 14:51:35;;;;;;;18.33;3.13;;;8.00;72.80;;;;;;5034586;28;20496;-76
2022/01/30 14:54:21;;;;;;;31.37;2.80;;;7.90;72.70;;;;;;5037623;28;20894;-75
2022/01/30 14:57:07;;;;;;;13.77;2.40;;;7.90;74.00;;;;;;5040232;28;20451;-77
2022/01/30 14:59:53;;;;;;;15.77;3.67;;;7.90;74.20;;;;;;5037983;28;20447;-76
2022/01/30 15:02:40;;;;;;;11.23;2.97;;;7.90;75.00;;;;;;5035692;28;20432;-77
2022/01/30 15:05:26;;;;;;;7.17;2.47;;;8.00;75.50;;;;;;5027002;28;20475;-76
2022/01/30 15:08:12;;;;;;;21.43;2.87;;;8.00;77.50;;;;;;5038541;28;20782;-77
2022/01/30 15:10:57;;;;;;;13.33;3.07;;;8.00;75.20;;;;;;5037754;28;20432;-76
2022/01/30 15:13:44;;;;;;;12.43;3.70;;;8.10;75.50;;;;;;5039067;28;20416;-77
2022/01/30 15:16:40;;;;;;;16.33;4.30;;;8.10;76.10;;;;;;5029461;28;20456;-76
2022/01/30 15:19:28;;;;;;;22.83;3.80;;;8.10;75.20;;;;;;5039031;28;20448;-77
2022/01/30 15:22:14;;;;;;;15.80;3.20;;;8.10;76.20;;;;;;5036315;28;20509;-76